createdAt,value
2023-05-14T00:00:43.115Z,89.40
2023-05-14T00:03:10.075Z,104.63
2023-05-14T00:05:36.743Z,98.63
2023-05-14T00:12:54.210Z,102.85
2023-05-14T00:20:12.372Z,88.43
2023-05-14T00:22:39.694Z,93.00
2023-05-14T00:25:07.166Z,94.18
2023-05-14T00:27:34.223Z,86.55
2023-05-14T00:34:51.803Z,88.18
2023-05-14T00:39:43.999Z,80.05
2023-05-14T00:42:10.776Z,76.80
2023-05-14T00:44:37.420Z,86.18
2023-05-14T00:47:04.180Z,82.38
2023-05-14T00:49:30.907Z,74.60
2023-05-14T00:54:24.615Z,75.30
2023-05-14T00:56:51.549Z,69.10
2023-05-14T01:01:52.770Z,73.68
2023-05-14T01:04:19.540Z,68.85
2023-05-14T01:07:02.919Z,69.72
2023-05-14T01:09:49.090Z,60.13
2023-05-14T01:17:50.397Z,51.30
2023-05-14T01:20:17.863Z,57.78
2023-05-14T01:22:44.519Z,56.17
2023-05-14T01:25:11.271Z,59.15
2023-05-14T01:33:13.614Z,62.90
2023-05-14T01:35:41.750Z,60.83
2023-05-14T01:38:10.804Z,61.22
2023-05-14T01:41:30.666Z,65.10
2023-05-14T01:56:06.903Z,52.08
2023-05-14T01:58:33.688Z,56.50
2023-05-14T02:03:26.079Z,50.30
2023-05-14T02:05:52.816Z,56.90
2023-05-14T02:08:19.451Z,50.58
2023-05-14T02:10:46.200Z,49.13
2023-05-14T02:13:12.863Z,45.25
2023-05-14T02:15:39.634Z,44.63
2023-05-14T02:20:31.839Z,50.83
2023-05-14T02:22:58.567Z,44.75
2023-05-14T02:25:25.228Z,39.67
2023-05-14T02:27:51.904Z,40.58
2023-05-14T02:30:18.513Z,47.40
2023-05-14T02:37:36.008Z,41.83
2023-05-14T02:44:53.736Z,42.63
2023-05-14T02:54:36.914Z,45.25
2023-05-14T02:59:29.846Z,40.38
2023-05-14T03:01:57.216Z,45.45
2023-05-14T03:06:49.565Z,45.40
2023-05-14T03:09:16.359Z,45.25
2023-05-14T03:11:43.139Z,44.72
2023-05-14T03:14:09.848Z,43.08
2023-05-14T03:16:36.587Z,39.95
2023-05-14T03:19:04.036Z,44.10
2023-05-14T03:23:57.326Z,44.80
2023-05-14T03:26:23.910Z,43.17
2023-05-14T03:31:18.396Z,42.10
2023-05-14T03:33:45.558Z,45.08
2023-05-14T03:36:12.268Z,44.72
2023-05-14T03:43:30.878Z,52.78
2023-05-14T03:45:57.722Z,46.97
2023-05-14T03:48:25.416Z,41.78
2023-05-14T03:50:52.309Z,39.40
2023-05-14T03:53:19.101Z,36.15
2023-05-14T03:55:46.543Z,39.15
2023-05-14T03:58:14.580Z,48.63
2023-05-14T04:03:10.215Z,46.22
2023-05-14T04:05:36.979Z,45.30
2023-05-14T04:08:03.789Z,30.58
2023-05-14T04:10:32.214Z,43.30
2023-05-14T04:13:00.247Z,46.78
2023-05-14T04:15:27.052Z,43.42
2023-05-14T04:25:10.111Z,47.20
2023-05-14T04:27:36.748Z,52.83
2023-05-14T04:30:03.538Z,49.53
2023-05-14T04:37:21.618Z,49.10
2023-05-14T04:39:48.298Z,49.40
2023-05-14T04:42:14.963Z,47.70
2023-05-14T04:47:46.827Z,49.78
2023-05-14T04:50:13.664Z,47.50
2023-05-14T04:52:40.412Z,49.38
2023-05-14T04:55:07.379Z,47.15
2023-05-14T04:57:34.030Z,44.80
2023-05-14T05:00:00.773Z,42.45
2023-05-14T05:04:52.943Z,40.17
2023-05-14T05:07:19.612Z,43.45
2023-05-14T05:09:46.299Z,41.15
2023-05-14T05:12:12.997Z,44.13
2023-05-14T05:14:39.641Z,42.72
2023-05-14T05:17:06.341Z,40.72
2023-05-14T05:19:43.136Z,41.05
2023-05-14T05:22:11.138Z,42.50
2023-05-14T05:24:37.793Z,41.90
2023-05-14T05:27:05.597Z,41.22
2023-05-14T05:29:32.421Z,38.78
2023-05-14T05:31:59.224Z,40.10
2023-05-14T05:34:25.843Z,45.97
2023-05-14T05:39:18.018Z,34.45
2023-05-14T05:41:44.771Z,38.20
2023-05-14T05:44:11.462Z,39.17
2023-05-14T06:03:36.413Z,37.33
2023-05-14T06:10:54.253Z,42.47
2023-05-14T06:13:20.971Z,40.45
2023-05-14T06:18:13.096Z,36.92
2023-05-14T06:20:41.513Z,37.45
2023-05-14T06:23:08.375Z,44.75
2023-05-14T06:28:00.668Z,41.17
2023-05-14T06:30:27.350Z,38.15
2023-05-14T06:32:54.033Z,34.70
2023-05-14T06:35:20.976Z,42.53
2023-05-14T06:37:47.640Z,36.25
2023-05-14T06:45:07.293Z,36.60
2023-05-14T06:47:34.143Z,36.80
2023-05-14T06:50:02.033Z,32.08
2023-05-14T06:52:28.796Z,38.15
2023-05-14T06:54:55.478Z,34.63
2023-05-14T06:59:47.596Z,38.28
2023-05-14T07:02:14.273Z,35.78
2023-05-14T07:09:32.199Z,31.83
2023-05-14T07:11:59.031Z,34.95
2023-05-14T07:14:25.774Z,38.42
2023-05-14T07:16:52.830Z,31.90
2023-05-14T07:19:19.666Z,35.28
2023-05-14T07:21:46.373Z,38.35
2023-05-14T07:24:13.233Z,31.80
2023-05-14T07:38:47.323Z,34.80
2023-05-14T07:41:14.085Z,30.20
2023-05-14T07:43:40.811Z,29.92
2023-05-14T07:46:07.479Z,30.10
2023-05-14T07:48:34.216Z,30.30
2023-05-14T07:51:01.181Z,29.52
2023-05-14T07:53:27.884Z,28.50
2023-05-14T07:55:54.886Z,29.30
2023-05-14T07:58:21.529Z,27.77
2023-05-14T08:00:48.193Z,29.77
2023-05-14T08:05:40.373Z,32.03
2023-05-14T08:08:07.223Z,30.50
2023-05-14T08:10:34.067Z,26.48
2023-05-14T08:13:01.193Z,26.52
2023-05-14T08:15:28.108Z,27.90
2023-05-14T08:17:55.041Z,23.40
2023-05-14T08:20:22.292Z,24.58
2023-05-14T08:22:49.150Z,28.55
2023-05-14T08:25:15.922Z,29.40
2023-05-14T08:27:42.619Z,27.30
2023-05-14T08:30:09.574Z,33.25
2023-05-14T08:32:38.684Z,29.17
2023-05-14T08:35:05.715Z,26.83
2023-05-14T08:37:32.466Z,27.80
2023-05-14T08:39:59.321Z,26.92
2023-05-14T08:42:27.050Z,23.83
2023-05-14T08:44:56.709Z,30.00
2023-05-14T08:50:01.782Z,23.88
2023-05-14T08:55:15.474Z,27.73
2023-05-14T08:57:42.269Z,29.52
2023-05-14T09:00:11.927Z,24.48
2023-05-14T09:02:40.229Z,30.83
2023-05-14T09:05:10.024Z,26.70
2023-05-14T09:07:36.816Z,27.02
2023-05-14T09:10:04.223Z,27.08
2023-05-14T09:14:57.013Z,22.98
2023-05-14T09:17:25.599Z,25.63
2023-05-14T09:19:56.327Z,30.23
2023-05-14T09:22:26.413Z,27.13
2023-05-14T09:27:32.596Z,25.75
2023-05-14T09:30:04.965Z,26.83
2023-05-14T09:32:44.025Z,26.98
2023-05-14T09:35:17.214Z,23.45
2023-05-14T09:42:39.885Z,25.48
2023-05-14T09:57:16.839Z,23.52
2023-05-14T10:09:32.933Z,26.15
2023-05-14T10:12:01.263Z,27.25
2023-05-14T10:14:33.639Z,28.90
2023-05-14T10:17:01.831Z,26.10
2023-05-14T10:19:32.081Z,28.08
2023-05-14T10:24:29.767Z,22.67
2023-05-14T10:26:56.556Z,25.83
2023-05-14T10:29:35.938Z,25.40
2023-05-14T10:32:02.592Z,25.63
2023-05-14T10:34:33.051Z,25.02
2023-05-14T10:37:01.124Z,25.48
2023-05-14T10:39:46.226Z,23.45
2023-05-14T10:47:20.159Z,26.55
2023-05-14T10:49:50.272Z,26.00
2023-05-14T10:52:18.688Z,26.35
2023-05-14T10:54:51.976Z,26.85
2023-05-14T10:57:19.894Z,27.05
2023-05-14T11:04:55.748Z,25.80
2023-05-14T11:07:24.179Z,26.73
2023-05-14T11:09:51.341Z,25.70
2023-05-14T11:14:43.917Z,24.73
2023-05-14T11:17:10.861Z,24.50
2023-05-14T11:19:37.578Z,26.08
2023-05-14T11:22:04.332Z,20.77
2023-05-14T11:24:31.027Z,28.40
2023-05-14T11:31:48.727Z,23.17
2023-05-14T11:34:15.693Z,29.45
2023-05-14T11:36:42.497Z,25.15
2023-05-14T11:39:09.136Z,26.35
2023-05-14T11:41:35.778Z,26.65
2023-05-14T11:44:03.419Z,23.88
2023-05-14T11:46:31.071Z,27.38
2023-05-14T11:49:12.816Z,28.65
2023-05-14T11:51:39.625Z,27.35
2023-05-14T11:54:06.225Z,24.15
2023-05-14T11:56:32.879Z,25.98
2023-05-14T11:58:59.550Z,22.92
2023-05-14T12:01:26.242Z,30.33
2023-05-14T12:03:53.030Z,24.95
2023-05-14T12:06:19.738Z,25.05
2023-05-14T12:08:47.802Z,17.02
2023-05-14T12:11:14.392Z,24.13
2023-05-14T12:16:06.713Z,26.48
2023-05-14T12:18:33.688Z,22.75
2023-05-14T12:23:30.505Z,24.55
2023-05-14T12:26:04.322Z,25.17
2023-05-14T12:28:31.124Z,24.63
2023-05-14T12:30:58.296Z,25.77
2023-05-14T12:33:26.900Z,24.52
2023-05-14T12:35:54.029Z,27.25
2023-05-14T12:38:20.865Z,23.65
2023-05-14T12:40:47.731Z,26.10
2023-05-14T12:43:14.590Z,23.50
2023-05-14T12:45:41.218Z,23.35
2023-05-14T12:48:07.860Z,27.67
2023-05-14T12:53:00.024Z,27.13
2023-05-14T12:55:26.699Z,26.70
2023-05-14T12:57:54.215Z,23.30
2023-05-14T13:00:21.001Z,24.33
2023-05-14T13:02:47.776Z,25.20
2023-05-14T13:05:14.513Z,19.70
2023-05-14T13:07:41.322Z,22.50
2023-05-14T13:10:08.356Z,18.00
2023-05-14T13:17:26.095Z,21.75
2023-05-14T13:19:52.886Z,24.70
2023-05-14T13:22:19.555Z,21.00
2023-05-14T13:24:46.484Z,23.98
2023-05-14T13:27:13.117Z,23.17
2023-05-14T13:29:39.775Z,25.20
2023-05-14T13:32:06.565Z,28.90
2023-05-14T13:34:33.138Z,25.67
2023-05-14T13:41:53.051Z,27.30
2023-05-14T13:44:19.694Z,20.33
2023-05-14T13:46:46.462Z,22.20
2023-05-14T13:49:13.251Z,20.17
2023-05-14T13:51:39.897Z,20.67
2023-05-14T13:54:06.663Z,22.42
2023-05-14T13:56:33.406Z,23.30
2023-05-14T13:59:00.028Z,20.70
2023-05-14T14:01:26.767Z,24.27
2023-05-14T14:03:53.497Z,21.70
2023-05-14T14:06:20.174Z,21.92
2023-05-14T14:08:46.871Z,26.50
2023-05-14T14:11:13.786Z,23.15
2023-05-14T14:13:41.625Z,20.70
2023-05-14T14:16:08.379Z,22.15
2023-05-14T14:18:35.123Z,20.73
2023-05-14T14:28:42.382Z,19.67
2023-05-14T14:35:59.976Z,18.35
2023-05-14T14:38:26.733Z,22.10
2023-05-14T14:40:53.491Z,18.63
2023-05-14T14:43:20.108Z,22.13
2023-05-14T14:45:48.906Z,18.45
2023-05-14T14:48:23.107Z,20.55
2023-05-14T14:50:50.149Z,20.60
2023-05-14T14:53:16.795Z,17.98
2023-05-14T14:58:08.933Z,17.27
2023-05-14T15:00:35.740Z,19.02
2023-05-14T15:05:28.394Z,16.27
2023-05-14T15:07:55.028Z,16.90
2023-05-14T15:10:21.629Z,15.77
2023-05-14T15:12:48.395Z,15.25
2023-05-14T15:15:15.049Z,24.60
2023-05-14T15:17:41.729Z,17.35
2023-05-14T15:20:09.156Z,17.77
2023-05-14T15:22:35.855Z,17.00
2023-05-14T15:25:02.491Z,19.10
2023-05-14T15:27:29.177Z,17.50
2023-05-14T15:29:55.794Z,15.48
2023-05-14T15:32:22.424Z,18.45
2023-05-14T15:34:49.085Z,16.65
2023-05-14T15:37:15.845Z,18.58
2023-05-14T15:39:42.512Z,16.60
2023-05-14T15:42:09.197Z,17.63
2023-05-14T15:44:38.743Z,17.58
2023-05-14T15:47:05.949Z,17.58
2023-05-14T15:56:49.784Z,20.67
2023-05-14T15:59:17.757Z,18.63
2023-05-14T16:01:44.591Z,23.58
2023-05-14T16:04:11.427Z,22.45
2023-05-14T16:06:41.918Z,24.30
2023-05-14T16:09:08.679Z,23.50
2023-05-14T16:14:00.780Z,23.52
2023-05-14T16:16:27.473Z,26.10
2023-05-14T16:21:19.531Z,26.70
2023-05-14T16:23:46.334Z,28.50
2023-05-14T16:33:32.376Z,30.95
2023-05-14T16:35:59.125Z,37.25
2023-05-14T16:38:25.728Z,33.65
2023-05-14T16:40:52.332Z,31.65
2023-05-14T16:43:18.926Z,33.47
2023-05-14T16:45:45.684Z,33.10
2023-05-14T16:48:12.404Z,34.08
2023-05-14T16:53:04.543Z,36.85
2023-05-14T16:55:31.364Z,40.38
2023-05-14T17:00:23.439Z,35.85
2023-05-14T17:02:52.536Z,36.47
2023-05-14T17:07:44.695Z,38.97
2023-05-14T17:10:11.584Z,42.75
2023-05-14T17:12:38.274Z,41.58
2023-05-14T17:15:06.590Z,39.72
2023-05-14T17:17:34.094Z,38.35
2023-05-14T17:20:01.027Z,43.50
2023-05-14T17:22:27.696Z,37.13
2023-05-14T17:24:54.514Z,37.97
2023-05-14T17:27:21.236Z,41.45
2023-05-14T17:29:51.095Z,41.22
2023-05-14T17:32:18.346Z,35.92
2023-05-14T17:37:10.525Z,38.80
2023-05-14T17:39:37.431Z,38.90
2023-05-14T17:44:29.922Z,36.63
2023-05-14T17:46:56.721Z,42.20
2023-05-14T17:49:23.410Z,30.75
2023-05-14T17:51:50.195Z,27.73
2023-05-14T17:54:16.893Z,25.25
2023-05-14T17:56:43.615Z,21.13
2023-05-14T17:59:10.320Z,22.52
2023-05-14T18:01:37.015Z,24.83
2023-05-14T18:04:03.654Z,21.80
2023-05-14T18:08:56.840Z,17.95
2023-05-14T18:11:23.614Z,20.98
2023-05-14T18:16:15.842Z,20.83
2023-05-14T18:18:42.622Z,18.80
2023-05-14T18:21:09.349Z,17.63
2023-05-14T18:23:36.010Z,19.40
2023-05-14T18:26:02.733Z,19.70
2023-05-14T18:30:54.878Z,21.58
2023-05-14T18:33:21.606Z,24.00
2023-05-14T18:40:39.304Z,24.25
2023-05-14T18:43:06.112Z,24.67
2023-05-14T18:45:33.080Z,25.42
2023-05-14T18:47:59.809Z,25.00
2023-05-14T18:50:26.556Z,28.17
2023-05-14T18:52:53.291Z,27.05
2023-05-14T18:55:19.909Z,24.65
2023-05-14T19:02:37.830Z,29.98
2023-05-14T19:05:04.765Z,33.90
2023-05-14T19:07:31.421Z,31.83
2023-05-14T19:09:58.143Z,34.10
2023-05-14T19:12:24.903Z,36.35
2023-05-14T19:14:51.568Z,31.73
2023-05-14T19:17:20.406Z,36.28
2023-05-14T19:22:12.850Z,32.60
2023-05-14T19:24:40.235Z,35.28
2023-05-14T19:27:06.910Z,36.78
2023-05-14T19:29:34.064Z,38.75
2023-05-14T19:32:00.909Z,38.75
2023-05-14T19:34:27.660Z,38.92
2023-05-14T19:36:54.302Z,42.95
2023-05-14T19:39:20.976Z,39.30
2023-05-14T19:44:13.274Z,40.55
2023-05-14T19:46:40.528Z,39.47
2023-05-14T19:49:07.258Z,43.70
2023-05-14T19:53:59.330Z,46.10
2023-05-14T19:56:28.829Z,48.20
2023-05-14T19:58:55.639Z,46.70
2023-05-14T20:01:22.685Z,47.10
2023-05-14T20:03:49.388Z,44.33
2023-05-14T20:08:45.222Z,47.15
2023-05-14T20:11:11.857Z,45.88
2023-05-14T20:13:41.438Z,47.80
2023-05-14T20:16:09.430Z,50.97
2023-05-14T20:18:36.449Z,47.97
2023-05-14T20:21:03.924Z,48.40
2023-05-14T20:23:30.747Z,52.10
2023-05-14T20:25:57.360Z,48.78
2023-05-14T20:28:24.039Z,53.58
2023-05-14T20:30:50.789Z,52.40
2023-05-14T20:33:17.626Z,55.83
2023-05-14T20:35:44.449Z,53.00
2023-05-14T20:40:38.051Z,59.47
2023-05-14T20:43:04.815Z,54.92
2023-05-14T20:47:57.280Z,57.13
2023-05-14T20:50:27.042Z,64.57
2023-05-14T20:52:53.956Z,59.67
2023-05-14T20:55:21.836Z,72.55
2023-05-14T20:57:49.928Z,65.18
2023-05-14T21:00:16.868Z,64.35
2023-05-14T21:02:43.719Z,67.40
2023-05-14T21:05:10.789Z,61.65
2023-05-14T21:07:37.525Z,63.03
2023-05-14T21:14:55.368Z,61.10
2023-05-14T21:17:22.170Z,57.58
2023-05-14T21:19:48.863Z,62.90
2023-05-14T21:22:15.526Z,61.67
2023-05-14T21:24:42.305Z,68.60
2023-05-14T21:27:08.982Z,71.35
2023-05-14T21:29:35.682Z,66.50
2023-05-14T21:32:02.517Z,64.35
2023-05-14T21:34:31.725Z,64.60
2023-05-14T21:36:58.695Z,70.57
2023-05-14T21:39:25.315Z,68.78
2023-05-14T21:41:52.174Z,74.82
2023-05-14T21:44:18.826Z,72.35
2023-05-14T21:46:47.514Z,69.22
2023-05-14T21:49:14.283Z,66.57
2023-05-14T21:51:41.037Z,56.92
2023-05-14T21:54:07.824Z,58.53
2023-05-14T21:56:35.098Z,57.75
2023-05-14T21:59:01.679Z,59.22
2023-05-14T22:03:55.096Z,57.55
2023-05-14T22:06:22.433Z,57.25
2023-05-14T22:11:14.596Z,60.65
2023-05-14T22:13:41.350Z,58.65
2023-05-14T22:16:13.165Z,56.55
2023-05-14T22:18:40.590Z,60.97
2023-05-14T22:21:07.315Z,60.35
2023-05-14T22:23:34.342Z,57.78
2023-05-14T22:26:01.063Z,65.85
2023-05-14T22:28:27.660Z,56.80
2023-05-14T22:30:54.514Z,62.75
2023-05-14T22:33:21.256Z,56.08
2023-05-14T22:35:48.122Z,66.50
2023-05-14T22:38:14.743Z,58.33
2023-05-14T22:40:41.512Z,61.33
2023-05-14T22:43:08.229Z,62.05
2023-05-14T22:50:25.832Z,69.60
2023-05-14T22:52:52.495Z,65.30
2023-05-14T22:55:19.245Z,63.38
2023-05-14T22:57:45.950Z,67.15
2023-05-14T23:00:12.929Z,65.43
2023-05-14T23:07:31.237Z,66.32
2023-05-14T23:09:57.878Z,68.40
2023-05-14T23:12:24.570Z,63.63
2023-05-14T23:14:51.272Z,64.95
2023-05-14T23:17:18.060Z,70.63
2023-05-14T23:19:44.779Z,70.50
2023-05-14T23:22:11.427Z,71.55
2023-05-14T23:24:38.030Z,69.97
2023-05-14T23:27:05.122Z,69.32
2023-05-14T23:29:31.776Z,65.88
2023-05-14T23:36:49.422Z,74.20
2023-05-14T23:39:16.438Z,69.80
2023-05-14T23:41:43.198Z,75.72
2023-05-14T23:44:09.909Z,64.55
2023-05-14T23:46:36.702Z,73.25
2023-05-14T23:49:03.425Z,75.20
2023-05-14T23:51:30.066Z,78.57
2023-05-14T23:58:49.988Z,77.35
